createdAt,value
2018-07-22T00:00:29.285Z,1006.43
2018-07-22T00:02:22.285Z,1006.39
2018-07-22T00:03:22.344Z,1006.42
2018-07-22T00:05:15.345Z,1006.45
2018-07-22T00:06:15.407Z,1006.50
2018-07-22T00:08:08.411Z,1006.49
2018-07-22T00:09:08.466Z,1006.51
2018-07-22T00:11:01.462Z,1006.54
2018-07-22T00:12:01.522Z,1006.54
2018-07-22T00:13:54.525Z,1006.53
2018-07-22T00:14:54.584Z,1006.54
2018-07-22T00:16:47.581Z,1006.53
2018-07-22T00:17:47.647Z,1006.53
2018-07-22T00:19:40.651Z,1006.49
2018-07-22T00:20:40.708Z,1006.44
2018-07-22T00:22:33.708Z,1006.42
2018-07-22T00:23:33.766Z,1006.45
2018-07-22T00:25:26.768Z,1006.46
2018-07-22T00:26:26.832Z,1006.47
2018-07-22T00:28:19.846Z,1006.49
2018-07-22T00:29:19.991Z,1006.48
2018-07-22T00:31:12.895Z,1006.50
2018-07-22T00:32:12.958Z,1006.52
2018-07-22T00:34:05.959Z,1006.52
2018-07-22T00:35:06.018Z,1006.51
2018-07-22T00:36:59.017Z,1006.53
2018-07-22T00:37:59.078Z,1006.52
2018-07-22T00:39:52.079Z,1006.57
2018-07-22T00:40:52.138Z,1006.53
2018-07-22T00:42:45.146Z,1006.59
2018-07-22T00:43:45.208Z,1006.57
2018-07-22T00:45:38.201Z,1006.56
2018-07-22T00:46:38.263Z,1006.54
2018-07-22T00:48:31.278Z,1006.55
2018-07-22T00:49:31.329Z,1006.52
2018-07-22T00:51:24.331Z,1006.48
2018-07-22T00:52:24.396Z,1006.51
2018-07-22T00:54:17.399Z,1006.46
2018-07-22T00:55:17.455Z,1006.47
2018-07-22T00:57:10.458Z,1006.43
2018-07-22T00:58:10.524Z,1006.45
2018-07-22T01:00:03.619Z,1006.43
2018-07-22T01:01:03.585Z,1006.41
2018-07-22T01:02:56.586Z,1006.45
2018-07-22T01:03:56.643Z,1006.43
2018-07-22T01:05:49.638Z,1006.48
2018-07-22T01:06:49.703Z,1006.45
2018-07-22T01:08:42.703Z,1006.43
2018-07-22T01:09:42.760Z,1006.44
2018-07-22T01:11:35.756Z,1006.39
2018-07-22T01:12:35.824Z,1006.42
2018-07-22T01:14:28.820Z,1006.42
2018-07-22T01:15:28.880Z,1006.41
2018-07-22T01:17:21.876Z,1006.40
2018-07-22T01:18:21.939Z,1006.38
2018-07-22T01:20:14.939Z,1006.40
2018-07-22T01:21:15.004Z,1006.39
2018-07-22T01:23:08.001Z,1006.39
2018-07-22T01:24:08.061Z,1006.38
2018-07-22T01:26:01.055Z,1006.40
2018-07-22T01:27:01.118Z,1006.44
2018-07-22T01:28:54.119Z,1006.45
2018-07-22T01:29:54.178Z,1006.46
2018-07-22T01:31:47.170Z,1006.47
2018-07-22T01:32:47.236Z,1006.46
2018-07-22T01:34:40.236Z,1006.44
2018-07-22T01:35:40.293Z,1006.45
2018-07-22T01:37:33.289Z,1006.44
2018-07-22T01:38:33.353Z,1006.46
2018-07-22T01:40:26.867Z,1006.51
2018-07-22T01:41:26.917Z,1006.49
2018-07-22T01:43:19.937Z,1006.48
2018-07-22T01:44:19.975Z,1006.53
2018-07-22T01:46:12.975Z,1006.51
2018-07-22T01:47:13.079Z,1006.50
2018-07-22T01:49:06.035Z,1006.48
2018-07-22T01:50:06.093Z,1006.47
2018-07-22T01:51:59.088Z,1006.50
2018-07-22T01:52:59.149Z,1006.50
2018-07-22T01:54:52.150Z,1006.50
2018-07-22T01:55:52.208Z,1006.48
2018-07-22T01:57:45.202Z,1006.53
2018-07-22T01:58:45.268Z,1006.57
2018-07-22T02:00:38.271Z,1006.52
2018-07-22T02:01:38.362Z,1006.50
2018-07-22T02:03:38.970Z,1006.52
2018-07-22T02:04:31.384Z,1006.51
2018-07-22T02:06:24.377Z,1006.49
2018-07-22T02:07:24.441Z,1006.50
2018-07-22T02:09:17.442Z,1006.51
2018-07-22T02:10:17.499Z,1006.51
2018-07-22T02:12:10.500Z,1006.49
2018-07-22T02:13:10.577Z,1006.47
2018-07-22T02:15:03.568Z,1006.50
2018-07-22T02:16:03.623Z,1006.47
2018-07-22T02:17:56.628Z,1006.48
2018-07-22T02:18:56.692Z,1006.47
2018-07-22T02:20:49.761Z,1006.48
2018-07-22T02:21:49.748Z,1006.49
2018-07-22T02:23:42.763Z,1006.52
2018-07-22T02:24:42.807Z,1006.52
2018-07-22T02:26:35.800Z,1006.50
2018-07-22T02:27:35.867Z,1006.45
2018-07-22T02:29:28.864Z,1006.51
2018-07-22T02:30:28.921Z,1006.50
2018-07-22T02:32:21.913Z,1006.53
2018-07-22T02:33:21.981Z,1006.54
2018-07-22T02:35:14.980Z,1006.56
2018-07-22T02:36:15.044Z,1006.54
2018-07-22T02:38:08.039Z,1006.59
2018-07-22T02:39:08.099Z,1006.54
2018-07-22T02:41:01.100Z,1006.62
2018-07-22T02:42:01.158Z,1006.60
2018-07-22T02:43:54.172Z,1006.66
2018-07-22T02:44:54.212Z,1006.67
2018-07-22T02:46:47.224Z,1006.71
2018-07-22T02:47:47.268Z,1006.69
2018-07-22T02:49:40.270Z,1006.70
2018-07-22T02:50:40.329Z,1006.68
2018-07-22T02:52:33.320Z,1006.68
2018-07-22T02:53:33.391Z,1006.70
2018-07-22T02:55:26.382Z,1006.76
2018-07-22T02:56:26.442Z,1006.72
2018-07-22T02:58:19.435Z,1006.73
2018-07-22T02:59:19.499Z,1006.72
2018-07-22T03:01:12.503Z,1006.76
2018-07-22T03:02:12.558Z,1006.75
2018-07-22T03:04:06.090Z,1006.81
2018-07-22T03:05:06.132Z,1006.77
2018-07-22T03:06:59.131Z,1006.74
2018-07-22T03:07:59.192Z,1006.74
2018-07-22T03:09:52.194Z,1006.78
2018-07-22T03:10:52.249Z,1006.81
2018-07-22T03:12:45.249Z,1006.81
2018-07-22T03:13:45.312Z,1006.75
2018-07-22T03:15:38.325Z,1006.77
2018-07-22T03:16:38.371Z,1006.76
2018-07-22T03:18:31.364Z,1006.76
2018-07-22T03:19:31.427Z,1006.79
2018-07-22T03:21:24.433Z,1006.82
2018-07-22T03:22:24.492Z,1006.84
2018-07-22T03:24:17.495Z,1006.81
2018-07-22T03:25:17.558Z,1006.86
2018-07-22T03:27:10.567Z,1006.95
2018-07-22T03:28:10.619Z,1006.98
2018-07-22T03:30:03.624Z,1007.02
2018-07-22T03:31:03.679Z,1007.04
2018-07-22T03:32:56.677Z,1007.07
2018-07-22T03:33:56.739Z,1007.04
2018-07-22T03:35:49.812Z,1007.07
2018-07-22T03:36:49.871Z,1007.06
2018-07-22T03:38:42.864Z,1007.12
2018-07-22T03:39:42.930Z,1007.15
2018-07-22T03:41:35.926Z,1007.11
2018-07-22T03:42:35.985Z,1007.11
2018-07-22T03:44:28.986Z,1007.12
2018-07-22T03:45:29.049Z,1007.13
2018-07-22T03:47:22.070Z,1007.13
2018-07-22T03:48:22.113Z,1007.19
2018-07-22T03:50:15.116Z,1007.21
2018-07-22T03:51:15.171Z,1007.24
2018-07-22T03:53:08.166Z,1007.22
2018-07-22T03:54:08.227Z,1007.24
2018-07-22T03:56:01.227Z,1007.27
2018-07-22T03:57:01.294Z,1007.28
2018-07-22T03:58:54.279Z,1007.28
2018-07-22T03:59:54.341Z,1007.27
2018-07-22T04:01:47.340Z,1007.29
2018-07-22T04:02:47.399Z,1007.31
2018-07-22T04:04:40.905Z,1007.29
2018-07-22T04:05:40.964Z,1007.33
2018-07-22T04:07:33.965Z,1007.36
2018-07-22T04:08:34.020Z,1007.33
2018-07-22T04:10:27.027Z,1007.34
2018-07-22T04:11:27.077Z,1007.35
2018-07-22T04:13:20.079Z,1007.33
2018-07-22T04:14:20.139Z,1007.35
2018-07-22T04:16:13.139Z,1007.37
2018-07-22T04:17:13.193Z,1007.40
2018-07-22T04:19:06.186Z,1007.31
2018-07-22T04:20:06.250Z,1007.30
2018-07-22T04:21:59.258Z,1007.31
2018-07-22T04:22:59.315Z,1007.32
2018-07-22T04:24:52.329Z,1007.32
2018-07-22T04:25:52.370Z,1007.28
2018-07-22T04:27:45.379Z,1007.35
2018-07-22T04:28:45.445Z,1007.34
2018-07-22T04:30:38.430Z,1007.36
2018-07-22T04:31:38.564Z,1007.36
2018-07-22T04:33:31.493Z,1007.35
2018-07-22T04:34:31.568Z,1007.35
2018-07-22T04:36:24.596Z,1007.35
2018-07-22T04:37:24.629Z,1007.33
2018-07-22T04:39:17.681Z,1007.42
2018-07-22T04:40:17.685Z,1007.37
2018-07-22T04:42:10.691Z,1007.43
2018-07-22T04:43:10.746Z,1007.45
2018-07-22T04:45:03.779Z,1007.47
2018-07-22T04:46:03.822Z,1007.48
2018-07-22T04:47:56.853Z,1007.52
2018-07-22T04:48:56.867Z,1007.48
2018-07-22T04:50:49.877Z,1007.49
2018-07-22T04:51:49.932Z,1007.45
2018-07-22T04:53:42.963Z,1007.43
2018-07-22T04:54:43.009Z,1007.45
2018-07-22T04:56:36.008Z,1007.48
2018-07-22T04:57:36.080Z,1007.44
2018-07-22T04:59:41.698Z,1007.46
2018-07-22T05:00:41.851Z,1007.52
2018-07-22T05:02:34.765Z,1007.49
2018-07-22T05:03:34.828Z,1007.49
2018-07-22T05:05:27.880Z,1007.52
2018-07-22T05:06:27.890Z,1007.52
2018-07-22T05:08:20.879Z,1007.52
2018-07-22T05:09:20.951Z,1007.55
2018-07-22T05:11:13.959Z,1007.60
2018-07-22T05:12:14.028Z,1007.59
2018-07-22T05:14:07.024Z,1007.60
2018-07-22T05:15:07.166Z,1007.65
2018-07-22T05:17:00.108Z,1007.71
2018-07-22T05:18:00.154Z,1007.69
2018-07-22T05:19:53.170Z,1007.72
2018-07-22T05:20:53.225Z,1007.71
2018-07-22T05:22:57.894Z,1007.71
2018-07-22T05:23:57.963Z,1007.69
2018-07-22T05:25:50.929Z,1007.73
2018-07-22T05:26:50.984Z,1007.73
2018-07-22T05:28:44.019Z,1007.77
2018-07-22T05:29:44.077Z,1007.77
2018-07-22T05:31:37.086Z,1007.81
2018-07-22T05:32:37.139Z,1007.81
2018-07-22T05:34:30.139Z,1007.83
2018-07-22T05:35:30.247Z,1007.82
2018-07-22T05:37:34.844Z,1007.89
2018-07-22T05:38:34.879Z,1007.89
2018-07-22T05:40:27.879Z,1007.95
2018-07-22T05:41:27.962Z,1007.97
2018-07-22T05:43:20.981Z,1007.99
2018-07-22T05:44:21.015Z,1007.96
2018-07-22T05:46:14.075Z,1007.97
2018-07-22T05:47:14.095Z,1007.93
2018-07-22T05:49:07.074Z,1008.00
2018-07-22T05:50:07.170Z,1007.94
2018-07-22T05:52:00.126Z,1007.97
2018-07-22T05:53:00.184Z,1008.04
2018-07-22T05:54:53.224Z,1008.00
2018-07-22T05:55:53.247Z,1008.02
2018-07-22T05:57:46.259Z,1008.05
2018-07-22T05:58:46.319Z,1007.99
2018-07-22T06:00:39.320Z,1008.05
2018-07-22T06:01:39.375Z,1008.10
2018-07-22T06:03:32.368Z,1008.15
2018-07-22T06:04:32.420Z,1008.18
2018-07-22T06:06:25.473Z,1008.15
2018-07-22T06:07:25.487Z,1008.20
2018-07-22T06:09:18.495Z,1008.24
2018-07-22T06:10:18.547Z,1008.23
2018-07-22T06:12:11.588Z,1008.24
2018-07-22T06:13:11.607Z,1008.28
2018-07-22T06:15:04.634Z,1008.30
2018-07-22T06:16:04.676Z,1008.34
2018-07-22T06:17:57.677Z,1008.33
2018-07-22T06:18:57.752Z,1008.37
2018-07-22T06:20:50.733Z,1008.42
2018-07-22T06:21:50.804Z,1008.38
2018-07-22T06:23:43.809Z,1008.44
2018-07-22T06:24:43.865Z,1008.49
2018-07-22T06:26:36.881Z,1008.51
2018-07-22T06:27:36.940Z,1008.52
2018-07-22T06:29:29.972Z,1008.48
2018-07-22T06:30:30.062Z,1008.47
2018-07-22T06:32:23.083Z,1008.54
2018-07-22T06:33:23.097Z,1008.50
2018-07-22T06:35:16.139Z,1008.55
2018-07-22T06:36:16.167Z,1008.60
2018-07-22T06:38:09.687Z,1008.60
2018-07-22T06:39:09.752Z,1008.65
2018-07-22T06:41:02.803Z,1008.70
2018-07-22T06:42:02.830Z,1008.74
2018-07-22T06:43:55.841Z,1008.77
2018-07-22T06:44:55.902Z,1008.79
2018-07-22T06:46:48.916Z,1008.78
2018-07-22T06:47:49.000Z,1008.80
2018-07-22T06:49:41.993Z,1008.80
2018-07-22T06:50:42.057Z,1008.82
2018-07-22T06:52:35.081Z,1008.98
2018-07-22T06:53:35.206Z,1009.17
2018-07-22T06:55:28.149Z,1009.20
2018-07-22T06:56:28.224Z,1009.13
2018-07-22T06:58:21.239Z,1009.21
2018-07-22T06:59:21.305Z,1009.26
2018-07-22T07:01:14.315Z,1009.23
2018-07-22T07:02:14.386Z,1009.23
2018-07-22T07:04:07.406Z,1009.19
2018-07-22T07:05:07.593Z,1009.24
2018-07-22T07:07:00.490Z,1009.22
2018-07-22T07:08:00.625Z,1008.94
2018-07-22T07:09:53.571Z,1008.88
2018-07-22T07:10:53.649Z,1008.91
2018-07-22T07:12:46.709Z,1008.96
2018-07-22T07:13:46.745Z,1008.97
2018-07-22T07:15:39.769Z,1008.98
2018-07-22T07:16:39.835Z,1008.97
2018-07-22T07:18:32.868Z,1008.98
2018-07-22T07:19:32.928Z,1008.96
2018-07-22T07:21:25.947Z,1008.94
2018-07-22T07:22:26.017Z,1008.95
2018-07-22T07:24:19.042Z,1008.99
2018-07-22T07:25:19.108Z,1008.97
2018-07-22T07:27:12.146Z,1008.98
2018-07-22T07:28:12.199Z,1009.01
2018-07-22T07:30:05.262Z,1008.99
2018-07-22T07:31:05.303Z,1008.99
2018-07-22T07:32:58.317Z,1008.93
2018-07-22T07:33:58.384Z,1008.96
2018-07-22T07:35:51.402Z,1008.99
2018-07-22T07:36:51.476Z,1009.00
2018-07-22T07:38:44.501Z,1009.01
2018-07-22T07:39:44.895Z,1009.07
2018-07-22T07:41:37.612Z,1009.06
2018-07-22T07:42:37.663Z,1009.04
2018-07-22T07:44:30.694Z,1009.05
2018-07-22T07:45:30.765Z,1009.05
2018-07-22T07:47:23.789Z,1009.06
2018-07-22T07:48:23.858Z,1009.09
2018-07-22T07:50:16.880Z,1009.08
2018-07-22T07:51:16.954Z,1009.07
2018-07-22T07:53:09.979Z,1009.10
2018-07-22T07:54:10.093Z,1009.12
2018-07-22T07:56:03.078Z,1009.09
2018-07-22T07:57:03.154Z,1009.06
2018-07-22T07:58:56.179Z,1009.11
2018-07-22T07:59:56.249Z,1009.11
2018-07-22T08:01:49.272Z,1009.05
2018-07-22T08:02:49.349Z,1009.07
2018-07-22T08:04:42.374Z,1009.09
2018-07-22T08:05:42.446Z,1009.10
2018-07-22T08:07:35.527Z,1009.05
2018-07-22T08:08:35.597Z,1009.05
2018-07-22T08:10:28.653Z,1009.11
2018-07-22T08:11:28.702Z,1009.09
2018-07-22T08:13:21.730Z,1009.09
2018-07-22T08:14:21.821Z,1009.10
2018-07-22T08:16:14.835Z,1009.13
2018-07-22T08:17:14.916Z,1009.15
2018-07-22T08:19:08.007Z,1009.14
2018-07-22T08:20:08.024Z,1009.16
2018-07-22T08:22:01.097Z,1009.07
2018-07-22T08:23:01.120Z,1009.07
2018-07-22T08:24:54.150Z,1009.09
2018-07-22T08:25:54.222Z,1008.99
2018-07-22T08:27:47.251Z,1009.12
2018-07-22T08:28:47.321Z,1009.12
2018-07-22T08:30:40.345Z,1009.14
2018-07-22T08:31:40.423Z,1009.19
2018-07-22T08:33:33.451Z,1009.15
2018-07-22T08:34:33.532Z,1009.17
2018-07-22T08:36:26.551Z,1009.21
2018-07-22T08:37:26.632Z,1009.21
2018-07-22T08:39:19.663Z,1009.19
2018-07-22T08:40:19.730Z,1009.19
2018-07-22T08:42:12.755Z,1009.23
2018-07-22T08:43:12.832Z,1009.21
2018-07-22T08:45:05.866Z,1009.25
2018-07-22T08:46:05.938Z,1009.24
2018-07-22T08:47:58.989Z,1009.24
2018-07-22T08:48:59.047Z,1009.28
2018-07-22T08:50:52.074Z,1009.22
2018-07-22T08:51:52.153Z,1009.27
2018-07-22T08:53:45.203Z,1009.28
2018-07-22T08:54:45.296Z,1009.36
2018-07-22T08:56:38.313Z,1009.37
2018-07-22T08:57:38.653Z,1009.33
2018-07-22T08:59:31.416Z,1009.39
2018-07-22T09:00:31.490Z,1009.39
2018-07-22T09:02:24.513Z,1009.41
2018-07-22T09:03:24.593Z,1009.42
2018-07-22T09:05:17.629Z,1009.48
2018-07-22T09:06:17.699Z,1009.47
2018-07-22T09:08:10.764Z,1009.56
2018-07-22T09:09:10.806Z,1009.55
2018-07-22T09:11:03.830Z,1009.53
2018-07-22T09:12:03.908Z,1009.52
2018-07-22T09:13:56.946Z,1009.50
2018-07-22T09:14:57.017Z,1009.59
2018-07-22T09:16:50.052Z,1009.53
2018-07-22T09:17:50.185Z,1009.53
2018-07-22T09:19:43.162Z,1009.54
2018-07-22T09:20:43.520Z,1009.58
2018-07-22T09:22:36.264Z,1009.61
2018-07-22T09:23:36.340Z,1009.54
2018-07-22T09:25:29.380Z,1009.52
2018-07-22T09:26:29.453Z,1009.53
2018-07-22T09:28:22.494Z,1009.54
2018-07-22T09:29:22.559Z,1009.57
2018-07-22T09:31:15.585Z,1009.49
2018-07-22T09:32:15.667Z,1009.49
2018-07-22T09:34:08.702Z,1009.42
2018-07-22T09:35:08.774Z,1009.42
2018-07-22T09:37:01.802Z,1009.21
2018-07-22T09:38:01.883Z,1009.25
2018-07-22T09:39:54.918Z,1009.28
2018-07-22T09:40:54.991Z,1009.24
2018-07-22T09:42:48.014Z,1009.29
2018-07-22T09:43:48.094Z,1009.30
2018-07-22T09:45:41.118Z,1009.32
2018-07-22T09:46:41.188Z,1009.24
2018-07-22T09:48:34.225Z,1009.29
2018-07-22T09:49:34.294Z,1009.31
2018-07-22T09:51:27.309Z,1009.37
2018-07-22T09:52:27.387Z,1009.37
2018-07-22T09:54:20.409Z,1009.39
2018-07-22T09:55:20.473Z,1009.44
2018-07-22T09:57:13.496Z,1009.44
2018-07-22T09:58:13.571Z,1009.37
2018-07-22T10:00:06.608Z,1009.29
2018-07-22T10:01:06.677Z,1009.31
2018-07-22T10:02:59.694Z,1009.32
2018-07-22T10:03:59.769Z,1009.28
2018-07-22T10:05:52.791Z,1009.34
2018-07-22T10:06:52.852Z,1009.33
2018-07-22T10:08:45.876Z,1009.33
2018-07-22T10:09:45.941Z,1009.25
2018-07-22T10:11:38.954Z,1009.29
2018-07-22T10:12:39.025Z,1009.30
2018-07-22T10:14:32.114Z,1009.23
2018-07-22T10:15:32.115Z,1009.24
2018-07-22T10:17:25.131Z,1009.22
2018-07-22T10:18:25.207Z,1009.21
2018-07-22T10:20:18.254Z,1009.27
2018-07-22T10:21:18.310Z,1009.25
2018-07-22T10:23:11.318Z,1009.24
2018-07-22T10:24:11.391Z,1009.25
2018-07-22T10:26:04.412Z,1009.23
2018-07-22T10:27:04.685Z,1009.17
2018-07-22T10:28:57.512Z,1009.21
2018-07-22T10:29:57.560Z,1009.15
2018-07-22T10:31:50.572Z,1009.07
2018-07-22T10:32:50.642Z,1009.11
2018-07-22T10:34:43.662Z,1009.11
2018-07-22T10:35:43.731Z,1009.14
2018-07-22T10:37:37.251Z,1009.15
2018-07-22T10:38:37.321Z,1009.15
2018-07-22T10:40:30.338Z,1009.12
2018-07-22T10:41:30.408Z,1009.06
2018-07-22T10:43:23.466Z,1009.06
2018-07-22T10:44:23.485Z,1009.04
2018-07-22T10:46:16.504Z,1009.09
2018-07-22T10:47:16.571Z,1009.06
2018-07-22T10:49:09.585Z,1009.08
2018-07-22T10:50:09.657Z,1009.09
2018-07-22T10:52:02.675Z,1009.10
2018-07-22T10:53:02.743Z,1009.08
2018-07-22T10:54:55.759Z,1009.06
2018-07-22T10:55:55.818Z,1009.02
2018-07-22T10:57:48.833Z,1009.04
2018-07-22T10:58:48.904Z,1009.04
2018-07-22T11:00:41.930Z,1009.07
2018-07-22T11:01:41.993Z,1009.02
2018-07-22T11:03:35.007Z,1008.98
2018-07-22T11:04:35.081Z,1009.01
2018-07-22T11:06:28.104Z,1009.02
2018-07-22T11:07:28.173Z,1009.05
2018-07-22T11:09:21.193Z,1009.12
2018-07-22T11:10:21.267Z,1009.06
2018-07-22T11:12:14.283Z,1009.04
2018-07-22T11:13:14.350Z,1009.02
2018-07-22T11:15:07.366Z,1009.03
2018-07-22T11:16:07.432Z,1009.00
2018-07-22T11:18:00.448Z,1009.01
2018-07-22T11:19:00.524Z,1008.99
2018-07-22T11:20:53.549Z,1008.99
2018-07-22T11:21:53.607Z,1009.01
2018-07-22T11:23:46.624Z,1009.01
2018-07-22T11:24:46.695Z,1008.99
2018-07-22T11:26:39.719Z,1008.99
2018-07-22T11:27:39.784Z,1008.95
2018-07-22T11:29:32.795Z,1008.93
2018-07-22T11:30:32.871Z,1008.90
2018-07-22T11:32:25.888Z,1008.93
2018-07-22T11:33:25.953Z,1008.92
2018-07-22T11:35:18.971Z,1008.90
2018-07-22T11:36:19.037Z,1008.93
2018-07-22T11:38:12.558Z,1008.89
2018-07-22T11:39:12.626Z,1008.90
2018-07-22T11:41:05.676Z,1008.97
2018-07-22T11:42:05.706Z,1008.98
2018-07-22T11:43:58.799Z,1008.93
2018-07-22T11:44:58.784Z,1008.87
2018-07-22T11:46:51.804Z,1008.91
2018-07-22T11:47:51.868Z,1008.88
2018-07-22T11:49:44.877Z,1008.90
2018-07-22T11:50:44.971Z,1008.91
2018-07-22T11:52:37.978Z,1008.90
2018-07-22T11:53:38.042Z,1008.87
2018-07-22T11:55:31.062Z,1008.86
2018-07-22T11:56:31.127Z,1008.89
2018-07-22T11:58:24.143Z,1008.83
2018-07-22T11:59:24.207Z,1008.83
2018-07-22T12:01:17.226Z,1008.82
2018-07-22T12:02:17.293Z,1008.83
2018-07-22T12:04:10.301Z,1008.82
2018-07-22T12:05:10.378Z,1008.86
2018-07-22T12:07:03.389Z,1008.83
2018-07-22T12:08:03.454Z,1008.84
2018-07-22T12:09:56.470Z,1008.80
2018-07-22T12:10:56.541Z,1008.79
2018-07-22T12:12:49.557Z,1008.74
2018-07-22T12:13:49.620Z,1008.73
2018-07-22T12:15:42.638Z,1008.75
2018-07-22T12:16:42.707Z,1008.73
2018-07-22T12:18:35.795Z,1008.70
2018-07-22T12:19:35.807Z,1008.70
2018-07-22T12:21:28.812Z,1008.71
2018-07-22T12:22:28.869Z,1008.75
2018-07-22T12:24:21.898Z,1008.67
2018-07-22T12:25:21.943Z,1008.61
2018-07-22T12:27:14.971Z,1008.61
2018-07-22T12:28:15.159Z,1008.57
2018-07-22T12:30:08.041Z,1008.57
2018-07-22T12:31:08.118Z,1008.52
2018-07-22T12:33:01.144Z,1008.55
2018-07-22T12:34:02.250Z,1008.54
2018-07-22T12:35:54.224Z,1008.53
2018-07-22T12:36:54.294Z,1008.53
2018-07-22T12:38:47.296Z,1008.52
2018-07-22T12:39:47.365Z,1008.52
2018-07-22T12:41:40.380Z,1008.52
2018-07-22T12:42:40.445Z,1008.51
2018-07-22T12:44:33.952Z,1008.51
2018-07-22T12:45:34.023Z,1008.50
2018-07-22T12:47:27.036Z,1008.46
2018-07-22T12:48:27.101Z,1008.45
2018-07-22T12:50:20.114Z,1008.43
2018-07-22T12:51:20.189Z,1008.46
2018-07-22T12:53:13.211Z,1008.42
2018-07-22T12:54:13.270Z,1008.44
2018-07-22T12:56:06.276Z,1008.37
2018-07-22T12:57:06.341Z,1008.40
2018-07-22T12:58:59.347Z,1008.35
2018-07-22T12:59:59.422Z,1008.33
2018-07-22T13:01:52.436Z,1008.35
2018-07-22T13:02:52.496Z,1008.38
2018-07-22T13:04:45.507Z,1008.38
2018-07-22T13:05:45.580Z,1008.38
2018-07-22T13:07:38.623Z,1008.34
2018-07-22T13:08:38.686Z,1008.33
2018-07-22T13:10:31.694Z,1008.36
2018-07-22T13:11:31.889Z,1008.36
2018-07-22T13:13:24.778Z,1008.37
2018-07-22T13:14:24.844Z,1008.36
2018-07-22T13:16:17.862Z,1008.37
2018-07-22T13:17:17.921Z,1008.32
2018-07-22T13:19:10.932Z,1008.31
2018-07-22T13:20:11.000Z,1008.34
2018-07-22T13:22:04.011Z,1008.35
2018-07-22T13:23:04.076Z,1008.40
2018-07-22T13:24:57.082Z,1008.37
2018-07-22T13:25:57.153Z,1008.43
2018-07-22T13:27:50.166Z,1008.36
2018-07-22T13:28:50.233Z,1008.35
2018-07-22T13:30:43.245Z,1008.39
2018-07-22T13:31:43.314Z,1008.39
2018-07-22T13:33:36.328Z,1008.38
2018-07-22T13:34:36.395Z,1008.35
2018-07-22T13:36:29.408Z,1008.40
2018-07-22T13:37:29.471Z,1008.40
2018-07-22T13:39:22.483Z,1008.37
2018-07-22T13:40:22.551Z,1008.36
2018-07-22T13:42:15.561Z,1008.41
2018-07-22T13:43:15.628Z,1008.43
2018-07-22T13:45:09.196Z,1008.40
2018-07-22T13:46:09.222Z,1008.43
2018-07-22T13:48:02.227Z,1008.44
2018-07-22T13:49:02.290Z,1008.41
2018-07-22T13:50:55.296Z,1008.41
2018-07-22T13:51:55.369Z,1008.41
2018-07-22T13:53:48.385Z,1008.41
2018-07-22T13:54:48.451Z,1008.45
2018-07-22T13:56:41.466Z,1008.49
2018-07-22T13:57:41.528Z,1008.48
2018-07-22T13:59:34.536Z,1008.52
2018-07-22T14:00:34.605Z,1008.54
2018-07-22T14:02:27.633Z,1008.58
2018-07-22T14:03:27.687Z,1008.55
2018-07-22T14:05:20.693Z,1008.63
2018-07-22T14:06:20.761Z,1008.63
2018-07-22T14:08:13.779Z,1008.65
2018-07-22T14:09:13.844Z,1008.65
2018-07-22T14:11:06.861Z,1008.68
2018-07-22T14:12:06.929Z,1008.67
2018-07-22T14:13:59.943Z,1008.72
2018-07-22T14:15:00.011Z,1008.71
2018-07-22T14:16:53.025Z,1008.73
2018-07-22T14:17:53.092Z,1008.78
2018-07-22T14:19:46.098Z,1008.74
2018-07-22T14:20:46.169Z,1008.75
2018-07-22T14:22:39.185Z,1008.78
2018-07-22T14:23:39.246Z,1008.77
2018-07-22T14:25:32.256Z,1008.81
2018-07-22T14:26:32.326Z,1008.79
2018-07-22T14:28:25.364Z,1008.80
2018-07-22T14:29:25.407Z,1008.79
2018-07-22T14:31:18.411Z,1008.79
2018-07-22T14:32:18.547Z,1008.77
2018-07-22T14:34:11.500Z,1008.79
2018-07-22T14:35:11.645Z,1008.77
2018-07-22T14:37:04.581Z,1008.82
2018-07-22T14:38:04.646Z,1008.81
2018-07-22T14:39:57.657Z,1008.80
2018-07-22T14:40:57.815Z,1008.81
2018-07-22T14:42:50.742Z,1008.83
2018-07-22T14:43:50.805Z,1008.82
2018-07-22T14:45:44.361Z,1008.81
2018-07-22T14:46:44.433Z,1008.77
2018-07-22T14:48:37.448Z,1008.77
2018-07-22T14:49:37.475Z,1008.77
2018-07-22T14:51:30.486Z,1008.80
2018-07-22T14:52:30.607Z,1008.79
2018-07-22T14:54:23.572Z,1008.79
2018-07-22T14:55:23.634Z,1008.80
2018-07-22T14:57:16.664Z,1008.84
2018-07-22T14:58:16.712Z,1008.78
2018-07-22T15:00:09.716Z,1008.81
2018-07-22T15:01:09.789Z,1008.73
2018-07-22T15:03:02.800Z,1008.76
2018-07-22T15:04:02.879Z,1008.78
2018-07-22T15:05:55.886Z,1008.76
2018-07-22T15:06:55.939Z,1008.81
2018-07-22T15:08:48.960Z,1008.76
2018-07-22T15:09:49.027Z,1008.76
2018-07-22T15:11:42.077Z,1008.76
2018-07-22T15:12:42.109Z,1008.77
2018-07-22T15:14:35.118Z,1008.79
2018-07-22T15:15:35.182Z,1008.72
2018-07-22T15:17:28.197Z,1008.77
2018-07-22T15:18:28.276Z,1008.74
2018-07-22T15:20:21.267Z,1008.79
2018-07-22T15:21:22.307Z,1008.79
2018-07-22T15:23:14.384Z,1008.84
2018-07-22T15:24:14.415Z,1008.84
2018-07-22T15:26:07.421Z,1008.79
2018-07-22T15:27:07.488Z,1008.79
2018-07-22T15:29:00.522Z,1008.79
2018-07-22T15:30:00.590Z,1008.81
2018-07-22T15:31:53.598Z,1008.81
2018-07-22T15:32:53.665Z,1008.75
2018-07-22T15:34:46.675Z,1008.79
2018-07-22T15:35:46.734Z,1008.75
2018-07-22T15:37:39.770Z,1008.79
2018-07-22T15:38:39.822Z,1008.82
2018-07-22T15:40:32.828Z,1008.84
2018-07-22T15:41:32.898Z,1008.83
2018-07-22T15:43:25.927Z,1008.81
2018-07-22T15:44:25.975Z,1008.81
2018-07-22T15:46:18.978Z,1008.80
2018-07-22T15:47:19.051Z,1008.80
2018-07-22T15:49:12.058Z,1008.81
2018-07-22T15:50:12.140Z,1008.80
2018-07-22T15:52:05.130Z,1008.82
2018-07-22T15:53:05.208Z,1008.75
2018-07-22T15:54:58.224Z,1008.77
2018-07-22T15:55:58.390Z,1008.76
2018-07-22T15:57:51.282Z,1008.74
2018-07-22T15:58:51.349Z,1008.72
2018-07-22T16:00:44.356Z,1008.68
2018-07-22T16:01:44.444Z,1008.67
2018-07-22T16:03:37.460Z,1008.69
2018-07-22T16:04:37.498Z,1008.68
2018-07-22T16:06:30.504Z,1008.64
2018-07-22T16:07:30.574Z,1008.64
2018-07-22T16:09:23.585Z,1008.62
2018-07-22T16:10:23.681Z,1008.61
2018-07-22T16:12:16.663Z,1008.60
2018-07-22T16:13:16.719Z,1008.56
2018-07-22T16:15:09.738Z,1008.59
2018-07-22T16:16:09.803Z,1008.59
2018-07-22T16:18:02.839Z,1008.58
2018-07-22T16:19:02.884Z,1008.61
2018-07-22T16:20:55.890Z,1008.63
2018-07-22T16:21:55.960Z,1008.60
2018-07-22T16:23:48.974Z,1008.62
2018-07-22T16:24:49.035Z,1008.61
2018-07-22T16:26:42.046Z,1008.61
2018-07-22T16:27:42.114Z,1008.56
2018-07-22T16:29:35.120Z,1008.56
2018-07-22T16:30:35.185Z,1008.60
2018-07-22T16:32:28.224Z,1008.62
2018-07-22T16:33:28.267Z,1008.62
2018-07-22T16:35:21.280Z,1008.65
2018-07-22T16:36:21.343Z,1008.62
2018-07-22T16:38:14.353Z,1008.62
2018-07-22T16:39:14.410Z,1008.63
2018-07-22T16:41:07.423Z,1008.60
2018-07-22T16:42:07.501Z,1008.61
2018-07-22T16:44:00.516Z,1008.64
2018-07-22T16:45:00.581Z,1008.60
2018-07-22T16:46:53.588Z,1008.62
2018-07-22T16:47:53.657Z,1008.61
2018-07-22T16:49:46.671Z,1008.66
2018-07-22T16:50:46.732Z,1008.62
2018-07-22T16:52:39.736Z,1008.61
2018-07-22T16:53:39.828Z,1008.62
2018-07-22T16:55:32.818Z,1008.62
2018-07-22T16:56:32.880Z,1008.57
2018-07-22T16:58:25.902Z,1008.59
2018-07-22T16:59:25.967Z,1008.60
2018-07-22T17:01:19.033Z,1008.58
2018-07-22T17:02:19.051Z,1008.56
2018-07-22T17:04:12.063Z,1008.53
2018-07-22T17:05:12.127Z,1008.52
2018-07-22T17:07:05.135Z,1008.55
2018-07-22T17:08:05.203Z,1008.52
2018-07-22T17:09:58.221Z,1008.54
2018-07-22T17:10:58.285Z,1008.55
2018-07-22T17:12:51.292Z,1008.55
2018-07-22T17:13:51.362Z,1008.55
2018-07-22T17:15:44.380Z,1008.52
2018-07-22T17:16:44.449Z,1008.51
2018-07-22T17:18:37.466Z,1008.53
2018-07-22T17:19:37.514Z,1008.48
2018-07-22T17:21:30.521Z,1008.51
2018-07-22T17:22:30.590Z,1008.53
2018-07-22T17:24:23.605Z,1008.49
2018-07-22T17:25:23.674Z,1008.51
2018-07-22T17:27:16.673Z,1008.50